createdAt,value
2022-09-09T00:02:29.331Z,101653.47
2022-09-09T00:05:21.091Z,101659.88
2022-09-09T00:07:54.025Z,101661.66
2022-09-09T00:10:44.767Z,101663.47
2022-09-09T00:13:34.166Z,101665.28
2022-09-09T00:16:25.947Z,101666.72
2022-09-09T00:19:08.777Z,101663.25
2022-09-09T00:21:40.141Z,101666.75
2022-09-09T00:24:33.340Z,101672.53
2022-09-09T00:27:14.112Z,101666.09
2022-09-09T00:29:49.587Z,101670.75
2022-09-09T00:32:22.414Z,101665.91
2022-09-09T00:34:56.777Z,101665.81
2022-09-09T00:37:27.718Z,101658.34
2022-09-09T00:40:02.172Z,101655.25
2022-09-09T00:42:48.132Z,101645.34
2022-09-09T00:45:44.573Z,101653.66
2022-09-09T00:48:14.642Z,101649.38
2022-09-09T00:51:08.748Z,101650.53
2022-09-09T00:54:23.322Z,101647.41
2022-09-09T00:57:32.915Z,101655.44
2022-09-09T01:00:25.047Z,101657.97
2022-09-09T01:03:17.062Z,101665.31
2022-09-09T01:06:07.913Z,101655.06
2022-09-09T01:08:44.251Z,101654.44
2022-09-09T01:11:23.199Z,101653.56
2022-09-09T01:14:05.439Z,101653.94
2022-09-09T01:16:38.492Z,101660.84
2022-09-09T01:19:16.391Z,101649.91
2022-09-09T01:22:22.677Z,101656.09
2022-09-09T01:25:29.805Z,101653.75
2022-09-09T01:28:04.314Z,101659.88
2022-09-09T01:30:36.251Z,101660.81
2022-09-09T01:33:15.495Z,101663.69
2022-09-09T01:36:05.796Z,101658.31
2022-09-09T01:38:38.951Z,101665.06
2022-09-09T01:41:06.768Z,101667.38
2022-09-09T01:43:37.692Z,101668.56
2022-09-09T01:46:08.671Z,101671.41
2022-09-09T01:48:37.789Z,101676.38
2022-09-09T01:51:09.000Z,101675.72
2022-09-09T01:53:39.278Z,101685.41
2022-09-09T01:56:15.960Z,101679.19
2022-09-09T01:59:03.920Z,101676.00
2022-09-09T02:02:07.992Z,101677.22
2022-09-09T02:04:55.886Z,101682.84
2022-09-09T02:07:46.907Z,101685.06
2022-09-09T02:10:28.558Z,101688.13
2022-09-09T02:13:12.169Z,101685.84
2022-09-09T02:15:50.268Z,101684.72
2022-09-09T02:18:27.815Z,101681.25
2022-09-09T02:20:59.121Z,101686.00
2022-09-09T02:23:30.135Z,101686.00
2022-09-09T02:26:02.383Z,101678.91
2022-09-09T02:28:33.829Z,101682.47
2022-09-09T02:31:03.310Z,101684.50
2022-09-09T02:33:38.406Z,101685.34
2022-09-09T02:36:12.605Z,101686.69
2022-09-09T02:38:52.417Z,101691.78
2022-09-09T02:41:38.535Z,101689.44
2022-09-09T02:44:19.103Z,101694.69
2022-09-09T02:46:58.358Z,101702.63
2022-09-09T02:50:08.419Z,101705.50
2022-09-09T02:53:14.330Z,101707.31
2022-09-09T02:55:53.703Z,101715.25
2022-09-09T02:58:23.326Z,101711.06
2022-09-09T03:00:52.678Z,101712.72
2022-09-09T03:03:23.111Z,101715.44
2022-09-09T03:05:52.218Z,101712.72
2022-09-09T03:08:20.749Z,101724.88
2022-09-09T03:10:48.648Z,101718.28
2022-09-09T03:13:22.307Z,101728.25
2022-09-09T03:15:50.775Z,101726.84
2022-09-09T03:18:19.982Z,101733.66
2022-09-09T03:20:50.843Z,101733.34
2022-09-09T03:23:19.843Z,101730.31
2022-09-09T03:25:52.376Z,101736.06
2022-09-09T03:28:21.843Z,101735.72
2022-09-09T03:30:51.086Z,101735.88
2022-09-09T03:33:18.938Z,101742.47
2022-09-09T03:35:50.797Z,101737.09
2022-09-09T03:38:19.766Z,101745.19
2022-09-09T03:40:56.538Z,101739.09
2022-09-09T03:43:28.530Z,101735.72
2022-09-09T03:45:58.417Z,101738.41
2022-09-09T03:48:29.441Z,101736.03
2022-09-09T03:50:59.124Z,101734.84
2022-09-09T03:53:28.745Z,101733.00
2022-09-09T03:56:02.769Z,101730.47
2022-09-09T03:58:32.324Z,101723.38
2022-09-09T04:01:02.458Z,101734.34
2022-09-09T04:03:31.286Z,101726.91
2022-09-09T04:06:03.200Z,101734.69
2022-09-09T04:08:35.093Z,101738.59
2022-09-09T04:11:08.741Z,101739.94
2022-09-09T04:13:40.700Z,101743.47
2022-09-09T04:16:13.963Z,101744.81
2022-09-09T04:18:43.159Z,101742.34
2022-09-09T04:21:14.022Z,101740.31
2022-09-09T04:23:41.742Z,101743.34
2022-09-09T04:26:10.676Z,101748.06
2022-09-09T04:28:38.918Z,101760.31
2022-09-09T04:31:24.101Z,101748.66
2022-09-09T04:33:52.997Z,101753.03
2022-09-09T04:36:22.759Z,101758.38
2022-09-09T04:38:51.549Z,101758.63
2022-09-09T04:41:19.730Z,101756.72
2022-09-09T04:43:47.893Z,101767.28
2022-09-09T04:46:19.635Z,101764.44
2022-09-09T04:48:48.187Z,101765.81
2022-09-09T04:51:19.500Z,101765.09
2022-09-09T04:53:51.449Z,101762.31
2022-09-09T04:56:23.608Z,101762.97
2022-09-09T04:58:52.711Z,101753.91
2022-09-09T05:01:27.132Z,101758.69
2022-09-09T05:03:56.566Z,101759.19
2022-09-09T05:06:26.172Z,101758.66
2022-09-09T05:08:58.440Z,101754.84
2022-09-09T05:11:33.473Z,101756.81
2022-09-09T05:14:02.347Z,101754.00
2022-09-09T05:16:32.587Z,101759.22
2022-09-09T05:19:02.127Z,101754.19
2022-09-09T05:21:34.929Z,101759.97
2022-09-09T05:24:08.389Z,101762.13
2022-09-09T05:26:42.516Z,101761.09
2022-09-09T05:29:17.102Z,101752.31
2022-09-09T05:31:50.824Z,101752.59
2022-09-09T05:34:21.126Z,101749.22
2022-09-09T05:36:53.013Z,101760.88
2022-09-09T05:39:20.711Z,101763.09
2022-09-09T05:41:52.847Z,101777.50
2022-09-09T05:44:25.200Z,101767.66
2022-09-09T05:46:54.949Z,101770.38
2022-09-09T05:49:30.658Z,101767.16
2022-09-09T05:52:03.069Z,101771.06
2022-09-09T05:54:41.879Z,101771.13
2022-09-09T05:57:09.987Z,101775.41
2022-09-09T05:59:42.393Z,101777.97
2022-09-09T06:02:11.028Z,101770.56
2022-09-09T06:04:43.056Z,101766.50
2022-09-09T06:07:11.822Z,101761.59
2022-09-09T06:09:45.023Z,101778.75
2022-09-09T06:12:15.925Z,101786.63
2022-09-09T06:14:46.466Z,101791.06
2022-09-09T06:17:19.395Z,101787.75
2022-09-09T06:19:50.836Z,101788.47
2022-09-09T06:22:21.404Z,101791.47
2022-09-09T06:24:49.814Z,101798.00
2022-09-09T06:27:22.289Z,101803.47
2022-09-09T06:29:49.946Z,101805.78
2022-09-09T06:32:24.244Z,101813.16
2022-09-09T06:34:52.701Z,101806.03
2022-09-09T06:37:24.154Z,101805.69
2022-09-09T06:39:52.101Z,101805.50
2022-09-09T06:42:31.082Z,101798.06
2022-09-09T06:45:02.213Z,101808.81
2022-09-09T06:47:31.920Z,101806.31
2022-09-09T06:50:09.352Z,101803.19
2022-09-09T06:52:44.639Z,101812.66
2022-09-09T06:55:14.237Z,101816.00
2022-09-09T06:57:45.297Z,101811.44
2022-09-09T07:00:17.864Z,101813.72
2022-09-09T07:02:46.705Z,101814.97
2022-09-09T07:05:18.146Z,101814.59
2022-09-09T07:07:46.812Z,101807.28
2022-09-09T07:10:18.258Z,101811.03
2022-09-09T07:12:53.427Z,101816.06
2022-09-09T07:15:23.764Z,101814.34
2022-09-09T07:18:03.116Z,101814.72
2022-09-09T07:20:37.098Z,101814.25
2022-09-09T07:23:08.131Z,101816.31
2022-09-09T07:25:37.557Z,101821.13
2022-09-09T07:28:08.026Z,101819.63
2022-09-09T07:30:37.821Z,101819.19
2022-09-09T07:33:06.052Z,101819.97
2022-09-09T07:35:34.065Z,101817.44
2022-09-09T07:38:03.156Z,101812.25
2022-09-09T07:40:45.404Z,101811.97
2022-09-09T07:43:17.441Z,101811.81
2022-09-09T07:45:46.514Z,101809.63
2022-09-09T07:48:25.271Z,101813.69
2022-09-09T07:50:56.657Z,101810.41
2022-09-09T07:53:27.944Z,101814.75
2022-09-09T07:56:13.266Z,101808.75
2022-09-09T07:58:44.957Z,101806.34
2022-09-09T08:01:20.408Z,101808.69
2022-09-09T08:04:01.026Z,101809.53
2022-09-09T08:06:36.279Z,101811.59
2022-09-09T08:09:08.760Z,101811.81
2022-09-09T08:11:39.289Z,101814.72
2022-09-09T08:25:17.142Z,101792.66
2022-09-09T08:27:47.497Z,101790.88
2022-09-09T08:30:18.828Z,101785.06
2022-09-09T08:33:05.762Z,101785.38
2022-09-09T08:52:01.297Z,101776.88
2022-09-09T08:54:51.608Z,101764.41
2022-09-09T08:57:28.207Z,101773.06
2022-09-09T09:00:01.657Z,101769.19
2022-09-09T09:02:55.972Z,101770.63
2022-09-09T09:06:03.254Z,101763.28
2022-09-09T09:08:42.398Z,101763.63
2022-09-09T09:11:12.857Z,101755.34
2022-09-09T09:14:07.753Z,101761.63
2022-09-09T09:17:16.276Z,101766.78
2022-09-09T09:19:48.517Z,101764.59
2022-09-09T09:22:42.741Z,101756.88
2022-09-09T09:25:26.306Z,101774.78
2022-09-09T09:28:19.460Z,101764.16
2022-09-09T09:31:14.998Z,101763.66
2022-09-09T09:33:52.047Z,101763.91
2022-09-09T09:36:35.901Z,101761.75
2022-09-09T09:41:56.389Z,101769.44
2022-09-09T09:44:41.860Z,101765.53
2022-09-09T09:47:24.806Z,101763.56
2022-09-09T09:50:01.842Z,101758.91
2022-09-09T09:52:42.336Z,101756.19
2022-09-09T09:55:15.602Z,101760.28
2022-09-09T09:57:47.902Z,101751.50
2022-09-09T10:00:22.803Z,101747.09
2022-09-09T10:03:07.208Z,101750.00
2022-09-09T10:05:39.397Z,101750.91
2022-09-09T10:08:29.821Z,101743.56
2022-09-09T10:11:26.668Z,101750.50
2022-09-09T10:14:20.070Z,101751.41
2022-09-09T10:17:19.171Z,101758.47
2022-09-09T10:20:18.818Z,101748.47
2022-09-09T10:22:53.786Z,101753.13
2022-09-09T10:25:27.111Z,101757.63
2022-09-09T10:28:33.859Z,101744.56
2022-09-09T10:31:13.351Z,101744.13
2022-09-09T10:34:34.451Z,101749.72
2022-09-09T10:37:45.920Z,101752.16
2022-09-09T10:40:32.618Z,101746.66
2022-09-09T10:43:14.736Z,101742.94
2022-09-09T10:46:04.599Z,101740.56
2022-09-09T10:49:23.073Z,101738.47
2022-09-09T10:52:22.693Z,101743.97
2022-09-09T10:55:15.833Z,101736.41
2022-09-09T10:57:55.342Z,101740.19
2022-09-09T11:01:05.692Z,101746.28
2022-09-09T11:03:41.954Z,101728.72
2022-09-09T11:06:26.939Z,101724.22
2022-09-09T11:08:57.115Z,101736.41
2022-09-09T11:15:01.284Z,101736.56
2022-09-09T11:18:05.550Z,101737.78
2022-09-09T11:20:45.201Z,101739.41
2022-09-09T11:23:50.391Z,101741.72
2022-09-09T11:26:37.293Z,101734.72
2022-09-09T11:29:22.429Z,101729.44
2022-09-09T11:32:18.284Z,101727.31
2022-09-09T11:35:11.725Z,101721.81
2022-09-09T11:38:11.219Z,101707.31
2022-09-09T11:40:45.260Z,101702.94
2022-09-09T11:43:39.565Z,101709.09
2022-09-09T11:46:11.274Z,101708.31
2022-09-09T11:49:05.035Z,101708.22
2022-09-09T11:51:40.640Z,101698.13
2022-09-09T11:54:50.389Z,101699.78
2022-09-09T11:57:39.151Z,101694.97
2022-09-09T12:07:17.185Z,101694.03
2022-09-09T12:10:09.926Z,101694.97
2022-09-09T12:12:43.983Z,101683.94
2022-09-09T12:15:31.199Z,101697.00
2022-09-09T12:18:04.171Z,101689.97
2022-09-09T12:20:53.250Z,101690.22
2022-09-09T12:23:44.117Z,101693.28
2022-09-09T12:26:39.307Z,101686.94
2022-09-09T12:29:22.444Z,101689.78
2022-09-09T12:32:36.930Z,101697.56
2022-09-09T12:35:10.387Z,101691.78
2022-09-09T12:37:52.318Z,101687.06
2022-09-09T12:40:29.413Z,101689.94
2022-09-09T12:42:57.801Z,101693.47
2022-09-09T12:45:44.937Z,101684.28
2022-09-09T12:48:19.465Z,101686.84
2022-09-09T12:50:54.749Z,101692.88
2022-09-09T12:53:39.451Z,101694.72
2022-09-09T12:56:11.378Z,101694.69
2022-09-09T12:58:42.661Z,101693.66
2022-09-09T13:04:34.267Z,101690.00
2022-09-09T13:07:13.290Z,101697.22
2022-09-09T13:09:44.267Z,101693.38
2022-09-09T13:12:28.532Z,101694.47
2022-09-09T13:15:00.169Z,101701.59
2022-09-09T13:17:35.978Z,101700.63
2022-09-09T13:20:05.619Z,101694.00
2022-09-09T13:22:41.890Z,101695.47
2022-09-09T13:25:43.649Z,101703.91
2022-09-09T13:28:33.477Z,101697.63
2022-09-09T13:31:24.390Z,101705.88
2022-09-09T13:33:55.374Z,101710.56
2022-09-09T13:36:32.303Z,101709.00
2022-09-09T13:39:03.927Z,101707.22
2022-09-09T13:41:49.846Z,101700.50
2022-09-09T13:44:45.045Z,101706.94
2022-09-09T13:47:23.939Z,101713.31
2022-09-09T13:49:58.422Z,101709.56
2022-09-09T13:52:32.783Z,101707.84
2022-09-09T13:55:03.500Z,101706.94
2022-09-09T13:57:35.404Z,101710.19
2022-09-09T14:00:14.706Z,101703.31
2022-09-09T14:02:45.758Z,101702.31
2022-09-09T14:05:24.091Z,101703.81
2022-09-09T14:07:53.454Z,101710.25
2022-09-09T14:10:28.302Z,101714.09
2022-09-09T14:13:02.285Z,101711.69
2022-09-09T14:15:35.999Z,101709.19
2022-09-09T14:18:05.013Z,101706.91
2022-09-09T14:20:34.195Z,101717.25
2022-09-09T14:23:19.530Z,101721.53
2022-09-09T14:25:47.801Z,101715.13
2022-09-09T14:28:16.702Z,101718.94
2022-09-09T14:30:46.036Z,101717.06
2022-09-09T14:33:17.227Z,101720.19
2022-09-09T14:35:52.170Z,101720.44
2022-09-09T14:38:23.278Z,101725.22
2022-09-09T14:40:55.395Z,101727.72
2022-09-09T14:43:25.656Z,101728.09
2022-09-09T14:45:55.181Z,101731.56
2022-09-09T14:48:37.458Z,101731.31
2022-09-09T14:51:26.511Z,101732.97
2022-09-09T14:54:00.117Z,101735.72
2022-09-09T14:56:41.292Z,101731.88
2022-09-09T14:59:10.249Z,101731.88
2022-09-09T15:01:39.168Z,101734.00
2022-09-09T15:04:08.432Z,101725.88
2022-09-09T15:06:39.674Z,101736.75
2022-09-09T15:09:07.842Z,101742.78
2022-09-09T15:11:39.282Z,101744.91
2022-09-09T15:14:10.654Z,101743.28
2022-09-09T15:16:40.319Z,101744.88
2022-09-09T15:19:19.463Z,101745.97
2022-09-09T15:21:58.154Z,101743.78
2022-09-09T15:24:27.621Z,101744.47
2022-09-09T15:26:58.697Z,101744.75
2022-09-09T15:29:26.800Z,101749.94
2022-09-09T15:31:58.483Z,101743.72
2022-09-09T15:34:26.936Z,101748.44
2022-09-09T15:36:59.510Z,101750.16
2022-09-09T15:39:32.883Z,101753.22
2022-09-09T15:42:08.743Z,101754.63
2022-09-09T15:44:47.630Z,101752.94
2022-09-09T15:47:19.556Z,101755.75
2022-09-09T15:49:54.887Z,101753.50
2022-09-09T15:52:25.669Z,101758.28
2022-09-09T15:54:56.226Z,101755.22
2022-09-09T15:57:25.770Z,101763.88
2022-09-09T16:00:05.795Z,101759.22
2022-09-09T16:02:38.067Z,101770.69
2022-09-09T16:05:19.544Z,101767.19
2022-09-09T16:07:50.139Z,101770.19
2022-09-09T16:10:18.641Z,101767.91
2022-09-09T16:12:56.771Z,101775.88
2022-09-09T16:15:29.169Z,101770.28
2022-09-09T16:18:09.572Z,101785.66
2022-09-09T16:20:38.739Z,101781.31
2022-09-09T16:23:10.844Z,101784.25
2022-09-09T16:25:41.820Z,101793.78
2022-09-09T16:28:10.907Z,101797.59
2022-09-09T16:30:41.770Z,101804.31
2022-09-09T16:33:14.782Z,101802.22
2022-09-09T16:35:46.279Z,101797.63
2022-09-09T16:38:23.163Z,101800.16
2022-09-09T16:40:51.315Z,101801.22
2022-09-09T16:43:22.536Z,101810.88
2022-09-09T16:45:51.739Z,101806.50
2022-09-09T16:48:21.601Z,101814.91
2022-09-09T16:50:50.211Z,101813.66
2022-09-09T16:53:18.783Z,101817.66
2022-09-09T16:56:01.160Z,101817.44
2022-09-09T16:58:29.874Z,101826.25
2022-09-09T17:01:03.622Z,101834.88
2022-09-09T17:03:41.707Z,101829.19
2022-09-09T17:06:15.710Z,101834.19
2022-09-09T17:08:45.784Z,101842.19
2022-09-09T17:11:20.442Z,101840.13
2022-09-09T17:14:02.010Z,101838.03
2022-09-09T17:16:46.347Z,101837.41
2022-09-09T17:19:14.974Z,101838.09
2022-09-09T17:22:15.013Z,101840.22
2022-09-09T17:24:41.688Z,101855.31
2022-09-09T17:27:15.903Z,101853.25
2022-09-09T17:29:54.280Z,101852.41
2022-09-09T17:32:30.814Z,101853.06
2022-09-09T17:35:02.313Z,101854.97
2022-09-09T17:37:40.656Z,101850.75
2022-09-09T17:40:10.985Z,101859.19
2022-09-09T17:42:49.265Z,101860.69
2022-09-09T17:45:20.767Z,101850.19
2022-09-09T17:47:51.891Z,101855.44
2022-09-09T17:50:19.775Z,101864.66
2022-09-09T17:52:50.818Z,101861.69
2022-09-09T17:55:18.637Z,101865.09
2022-09-09T17:57:48.293Z,101867.41
2022-09-09T18:00:26.041Z,101867.19
2022-09-09T18:02:58.848Z,101863.84
2022-09-09T18:05:31.499Z,101858.41
2022-09-09T18:08:03.827Z,101863.44
2022-09-09T18:10:42.619Z,101872.47
2022-09-09T18:13:13.006Z,101875.41
2022-09-09T18:15:49.607Z,101870.16
2022-09-09T18:18:19.459Z,101870.38
2022-09-09T18:21:00.823Z,101865.53
2022-09-09T18:23:31.093Z,101873.53
2022-09-09T18:26:20.074Z,101867.44
2022-09-09T18:29:04.157Z,101868.47
2022-09-09T18:31:32.336Z,101862.84
2022-09-09T18:34:04.196Z,101865.56
2022-09-09T18:36:44.658Z,101864.22
2022-09-09T18:39:18.457Z,101859.63
2022-09-09T18:41:49.667Z,101860.66
2022-09-09T18:44:21.468Z,101868.41
2022-09-09T18:46:53.825Z,101869.88
2022-09-09T18:49:25.785Z,101867.56
2022-09-09T18:51:54.967Z,101864.63
2022-09-09T18:54:30.479Z,101863.78
2022-09-09T18:57:01.011Z,101860.00
2022-09-09T18:59:29.644Z,101866.31
2022-09-09T19:01:58.702Z,101864.16
2022-09-09T19:04:29.826Z,101866.28
2022-09-09T19:07:00.972Z,101862.06
2022-09-09T19:09:33.976Z,101867.50
2022-09-09T19:12:05.280Z,101861.63
2022-09-09T19:14:34.073Z,101869.59
2022-09-09T19:17:05.101Z,101871.03
2022-09-09T19:19:35.894Z,101861.59
2022-09-09T19:22:17.597Z,101863.91
2022-09-09T19:24:50.562Z,101872.09
2022-09-09T19:27:21.459Z,101876.25
2022-09-09T19:29:56.813Z,101866.19
2022-09-09T19:32:53.398Z,101875.59
2022-09-09T19:35:16.944Z,101872.88
2022-09-09T19:37:44.695Z,101873.22
2022-09-09T19:40:16.034Z,101884.50
2022-09-09T19:42:47.472Z,101889.31
2022-09-09T19:45:22.185Z,101882.63
2022-09-09T19:47:50.802Z,101883.13
2022-09-09T19:50:19.658Z,101884.19
2022-09-09T19:52:49.005Z,101886.09
2022-09-09T19:55:34.189Z,101887.34
2022-09-09T19:58:02.711Z,101886.88
2022-09-09T20:00:39.212Z,101893.53
2022-09-09T20:03:18.634Z,101898.31
2022-09-09T20:05:49.591Z,101906.50
2022-09-09T20:08:21.790Z,101901.06
2022-09-09T20:10:52.821Z,101895.22
2022-09-09T20:13:21.451Z,101886.97
2022-09-09T20:16:11.732Z,101887.47
2022-09-09T20:18:46.892Z,101895.63
2022-09-09T20:21:21.194Z,101895.50
2022-09-09T20:23:52.026Z,101897.59
2022-09-09T20:26:22.970Z,101906.72
2022-09-09T20:28:53.494Z,101905.56
2022-09-09T20:31:25.522Z,101909.03
2022-09-09T20:33:56.889Z,101910.97
2022-09-09T20:36:29.420Z,101914.69
2022-09-09T20:39:04.960Z,101913.84
2022-09-09T20:41:36.772Z,101905.41
2022-09-09T20:44:09.564Z,101906.47
2022-09-09T20:46:43.177Z,101911.31
2022-09-09T20:49:14.333Z,101907.06
2022-09-09T20:51:43.595Z,101913.56
2022-09-09T20:54:28.255Z,101913.72
2022-09-09T20:56:59.112Z,101912.81
2022-09-09T20:59:29.002Z,101912.50
2022-09-09T21:01:58.640Z,101923.31
2022-09-09T21:04:29.186Z,101928.75
2022-09-09T21:07:00.915Z,101932.66
2022-09-09T21:09:29.543Z,101929.72
2022-09-09T21:12:00.697Z,101938.28
2022-09-09T21:14:32.447Z,101941.56
2022-09-09T21:17:00.707Z,101943.25
2022-09-09T21:19:29.735Z,101944.25
2022-09-09T21:21:59.066Z,101952.13
2022-09-09T21:24:28.015Z,101951.78
2022-09-09T21:26:59.294Z,101955.75
2022-09-09T21:29:27.957Z,101955.56
2022-09-09T21:31:56.054Z,101955.31
2022-09-09T21:34:25.182Z,101955.63
2022-09-09T21:36:53.982Z,101954.19
2022-09-09T21:39:23.091Z,101942.31
2022-09-09T21:41:50.723Z,101955.44
2022-09-09T21:44:19.429Z,101951.22
2022-09-09T21:46:47.747Z,101946.19
2022-09-09T21:49:16.386Z,101950.03
2022-09-09T21:51:45.951Z,101956.63
2022-09-09T21:54:19.366Z,101959.25
2022-09-09T21:56:49.887Z,101973.00
2022-09-09T21:59:18.717Z,101955.59
2022-09-09T22:01:48.916Z,101968.34
2022-09-09T22:04:17.964Z,101963.75
2022-09-09T22:06:48.779Z,101966.94
2022-09-09T22:09:19.500Z,101965.25
2022-09-09T22:11:48.111Z,101963.28
2022-09-09T22:14:17.409Z,101962.06
2022-09-09T22:16:45.694Z,101971.72
2022-09-09T22:19:15.375Z,101964.59
2022-09-09T22:21:46.145Z,101973.78
2022-09-09T22:24:16.548Z,101964.13
2022-09-09T22:26:47.477Z,101967.34
2022-09-09T22:29:16.533Z,101974.91
2022-09-09T22:31:44.805Z,101979.59
2022-09-09T22:34:13.990Z,101982.78
2022-09-09T22:36:42.218Z,101979.22
2022-09-09T22:39:10.654Z,101975.00
2022-09-09T22:41:39.531Z,101970.25
2022-09-09T22:44:09.369Z,101978.38
2022-09-09T22:46:39.911Z,101970.78
2022-09-09T22:49:08.247Z,101971.34
2022-09-09T22:51:37.962Z,101978.19
2022-09-09T22:54:06.424Z,101973.69
2022-09-09T22:56:39.283Z,101975.84
2022-09-09T22:59:08.109Z,101969.22
2022-09-09T23:01:39.764Z,101975.38
2022-09-09T23:04:07.709Z,101979.47
2022-09-09T23:06:39.284Z,101981.78
2022-09-09T23:09:07.708Z,101989.09
2022-09-09T23:11:37.185Z,101983.13
2022-09-09T23:14:10.014Z,101991.72
2022-09-09T23:16:42.982Z,101985.69
2022-09-09T23:19:16.071Z,101989.53
2022-09-09T23:21:46.557Z,101991.06
2022-09-09T23:24:16.571Z,101997.50
2022-09-09T23:26:45.812Z,101991.47
2022-09-09T23:29:14.995Z,101992.72
2022-09-09T23:31:45.573Z,102001.38
2022-09-09T23:34:14.029Z,101996.63
2022-09-09T23:36:42.789Z,101998.50
2022-09-09T23:39:11.699Z,102011.88
2022-09-09T23:41:41.162Z,102017.66
2022-09-09T23:44:12.913Z,102014.94
2022-09-09T23:46:42.056Z,102017.00
2022-09-09T23:49:10.163Z,102014.91
2022-09-09T23:51:38.415Z,102002.34
2022-09-09T23:54:07.489Z,102010.22
2022-09-09T23:56:40.592Z,102007.97
2022-09-09T23:59:09.592Z,102004.28
